Time;durP1;ratioP1;P1;durP2;ratioP2;P2;SDS_P1;SDS_P2;PMS_P1;PMS_P2;Temp;Humidity;BMP_temperature;BMP_pressure;BME280_temperature;BME280_humidity;BME280_pressure;Samples;Min_cycle;Max_cycle;Signal;HPM_P1;HPM_P2
2024/01/06 00:01:21;;;;;;;13.77;10.90;;;;;;;7.35;78.40;94979.63;5067018;28;20166;-70
2024/01/06 00:03:46;;;;;;;14.70;11.47;;;;;;;7.52;78.22;94989.13;5066917;28;20700;-69
2024/01/06 00:06:13;;;;;;;13.80;10.67;;;;;;;7.31;78.86;94979.84;5067010;28;20228;-71
2024/01/06 00:08:39;;;;;;;12.37;10.30;;;;;;;7.27;78.83;94987.00;5067138;28;20190;-70
2024/01/06 00:11:04;;;;;;;13.07;9.77;;;;;;;7.35;78.27;94979.63;5066659;28;20415;-70
2024/01/06 00:13:30;;;;;;;17.60;10.43;;;;;;;7.27;78.94;94983.53;5067041;28;20170;-70
2024/01/06 00:15:55;;;;;;;11.93;10.60;;;;;;;7.33;79.05;94978.00;5067361;28;20190;-71
2024/01/06 00:18:20;;;;;;;11.63;10.37;;;;;;;7.21;79.23;94971.69;5066786;28;20170;-70
2024/01/06 00:20:46;;;;;;;13.90;9.37;;;;;;;7.36;77.95;94970.84;5066982;28;20208;-68
2024/01/06 00:23:11;;;;;;;12.77;9.77;;;;;;;7.32;77.85;94966.75;5066849;28;20166;-70
2024/01/06 00:25:37;;;;;;;11.30;9.33;;;;;;;7.49;77.34;94975.38;5067441;28;20217;-70
2024/01/06 00:28:02;;;;;;;9.70;7.23;;;;;;;7.40;76.52;94974.97;5066930;28;20174;-70
2024/01/06 00:30:28;;;;;;;12.43;7.67;;;;;;;7.42;75.76;94978.34;5066552;28;20309;-68
2024/01/06 00:32:53;;;;;;;8.53;5.60;;;;;;;7.39;74.94;94983.75;5066431;28;20202;-68
2024/01/06 00:35:18;;;;;;;8.00;5.50;;;;;;;7.38;75.29;94981.22;5066849;28;20243;-68
2024/01/06 00:37:44;;;;;;;6.50;5.40;;;;;;;7.35;75.41;94982.22;5066265;28;20186;-69
2024/01/06 00:40:10;;;;;;;7.07;4.67;;;;;;;7.30;74.40;94984.25;5066284;28;20178;-69
2024/01/06 00:42:35;;;;;;;6.83;4.23;;;;;;;7.23;74.25;94982.88;5065832;28;20178;-68
2024/01/06 00:45:00;;;;;;;8.27;4.87;;;;;;;7.36;74.41;94989.09;5066218;28;20178;-69
2024/01/06 00:47:26;;;;;;;7.20;4.20;;;;;;;7.39;74.39;94986.34;5065910;28;20217;-69
2024/01/06 00:49:51;;;;;;;5.77;5.00;;;;;;;7.31;74.12;94983.31;5066353;28;20190;-69
2024/01/06 00:52:16;;;;;;;7.07;5.00;;;;;;;7.34;73.94;94990.13;5066278;28;20173;-68
2024/01/06 00:54:42;;;;;;;5.57;4.77;;;;;;;7.25;74.39;94981.00;5066362;28;20204;-70
2024/01/06 00:57:07;;;;;;;7.40;5.70;;;;;;;7.22;74.72;94989.84;5066685;28;20198;-68
2024/01/06 00:59:33;;;;;;;6.20;5.60;;;;;;;7.25;73.58;94994.06;5065990;28;20169;-69
2024/01/06 01:01:58;;;;;;;5.57;5.03;;;;;;;7.18;74.31;95003.13;5065613;28;20181;-69
2024/01/06 01:04:24;;;;;;;6.40;4.27;;;;;;;7.21;74.33;94997.78;5066429;28;20166;-68
2024/01/06 01:06:49;;;;;;;7.10;5.23;;;;;;;7.21;74.23;94996.00;5066051;28;20955;-68
2024/01/06 01:09:14;;;;;;;6.57;4.50;;;;;;;7.08;74.18;95000.16;5065788;28;20197;-69
2024/01/06 01:11:41;;;;;;;6.27;4.80;;;;;;;7.17;74.51;95011.91;5066924;28;21005;-69
2024/01/06 01:14:06;;;;;;;6.10;5.10;;;;;;;7.15;74.81;95009.34;5066295;28;20267;-68
2024/01/06 01:16:34;;;;;;;10.57;5.20;;;;;;;7.22;75.30;95009.88;5065734;28;20474;-69
2024/01/06 01:19:01;;;;;;;5.67;4.40;;;;;;;7.31;73.97;95013.78;5065960;28;20177;-68
2024/01/06 01:21:27;;;;;;;5.07;4.37;;;;;;;7.29;73.43;95011.25;5066144;28;20415;-71
2024/01/06 01:23:52;;;;;;;7.10;4.90;;;;;;;7.24;73.43;95018.47;5065753;28;20413;-69
2024/01/06 01:26:18;;;;;;;6.00;4.43;;;;;;;6.98;74.25;95018.06;5068003;28;20200;-69
2024/01/06 01:28:43;;;;;;;6.80;5.10;;;;;;;7.03;74.05;95023.06;5066516;28;20170;-68
2024/01/06 01:31:08;;;;;;;6.63;4.90;;;;;;;7.09;73.57;95017.53;5066426;28;20937;-68
2024/01/06 01:33:34;;;;;;;12.00;5.37;;;;;;;7.08;73.41;95020.19;5066657;28;20833;-69
2024/01/06 01:35:59;;;;;;;5.20;4.63;;;;;;;7.08;74.93;95025.41;5065922;28;20632;-69
2024/01/06 01:38:24;;;;;;;4.77;4.27;;;;;;;7.09;73.65;95027.13;5065769;28;20213;-68
2024/01/06 01:40:50;;;;;;;5.67;4.13;;;;;;;6.92;73.80;95028.84;5064557;28;20166;-68
2024/01/06 01:43:19;;;;;;;5.10;4.30;;;;;;;6.78;74.78;95023.50;5066062;28;20170;-68
2024/01/06 01:45:50;;;;;;;6.17;5.17;;;;;;;6.99;74.58;95026.72;5057910;28;20205;-68
2024/01/06 01:48:15;;;;;;;7.33;4.50;;;;;;;7.10;74.07;95034.00;5045657;28;20397;-69
2024/01/06 01:50:40;;;;;;;6.90;4.67;;;;;;;6.91;73.78;95029.75;5045338;28;20520;-69
2024/01/06 01:53:06;;;;;;;4.60;4.20;;;;;;;6.98;74.13;95033.72;5049058;28;20542;-69
2024/01/06 01:55:31;;;;;;;5.30;3.97;;;;;;;7.19;73.39;95034.38;5052261;28;20194;-69
2024/01/06 01:57:57;;;;;;;10.07;4.27;;;;;;;6.87;73.59;95032.59;5052579;28;20174;-69
2024/01/06 02:00:22;;;;;;;5.20;4.10;;;;;;;6.82;73.96;95038.03;5052119;28;20175;-68
2024/01/06 02:02:48;;;;;;;6.83;4.47;;;;;;;6.98;72.75;95041.53;5055156;28;20174;-69
2024/01/06 02:05:14;;;;;;;11.87;5.57;;;;;;;7.05;72.76;95039.47;5072230;28;20177;-69
2024/01/06 02:07:40;;;;;;;18.80;5.17;;;;;;;7.10;72.49;95036.63;5073495;28;20441;-69
2024/01/06 02:10:06;;;;;;;8.07;4.37;;;;;;;6.88;74.23;95034.28;5075928;28;20193;-69
2024/01/06 02:12:31;;;;;;;10.50;5.13;;;;;;;7.10;73.77;95041.84;5077901;28;20415;-70
2024/01/06 02:14:56;;;;;;;3.83;3.50;;;;;;;6.82;74.53;95038.03;5078191;28;20404;-68
2024/01/06 02:17:22;;;;;;;6.93;4.60;;;;;;;6.97;74.27;95045.09;5077020;28;20237;-69
2024/01/06 02:19:47;;;;;;;5.10;4.37;;;;;;;6.67;74.99;95044.03;5080100;28;20158;-69
2024/01/06 02:22:12;;;;;;;5.03;4.07;;;;;;;6.74;75.27;95043.66;5076036;28;20193;-67
2024/01/06 02:24:38;;;;;;;5.67;4.00;;;;;;;6.76;75.14;95048.78;5072615;28;20197;-68
2024/01/06 02:27:03;;;;;;;11.27;4.80;;;;;;;6.92;74.25;95046.22;5072217;28;20558;-68
2024/01/06 02:29:29;;;;;;;4.73;4.23;;;;;;;6.97;73.90;95050.31;5072445;28;20201;-68
2024/01/06 02:31:54;;;;;;;8.50;4.00;;;;;;;6.98;74.72;95046.75;5072438;28;20199;-67
2024/01/06 02:34:20;;;;;;;7.03;4.20;;;;;;;6.99;74.62;95052.81;5072058;28;20659;-67
2024/01/06 02:36:45;;;;;;;5.97;3.90;;;;;;;6.88;74.09;95050.78;5072557;28;20193;-68
2024/01/06 02:39:10;;;;;;;4.13;3.63;;;;;;;7.06;73.18;95053.34;5072225;28;20189;-68
2024/01/06 02:41:36;;;;;;;5.27;4.33;;;;;;;7.05;72.24;95062.94;5071898;28;20223;-67
2024/01/06 02:44:03;;;;;;;3.53;3.23;;;;;;;7.08;72.13;95062.78;5071928;28;20308;-69
2024/01/06 02:46:29;;;;;;;6.30;3.83;;;;;;;7.05;72.62;95062.09;5071541;28;20194;-69
2024/01/06 02:48:54;;;;;;;7.30;3.17;;;;;;;7.11;72.54;95069.59;5071666;28;20849;-67
2024/01/06 02:51:19;;;;;;;4.43;3.47;;;;;;;7.08;72.90;95069.75;5071875;28;20185;-68
2024/01/06 02:53:45;;;;;;;4.13;3.33;;;;;;;6.98;72.28;95072.84;5071779;28;20260;-68
2024/01/06 02:56:11;;;;;;;4.83;3.03;;;;;;;6.99;71.72;95071.94;5071521;28;20209;-69
2024/01/06 02:58:37;;;;;;;5.97;3.43;;;;;;;7.00;71.24;95073.63;5071924;28;20166;-69
2024/01/06 03:01:02;;;;;;;4.40;3.07;;;;;;;7.09;71.10;95074.06;5071247;28;20422;-69
2024/01/06 03:03:27;;;;;;;5.50;3.03;;;;;;;7.07;71.01;95071.53;5070940;28;20170;-69
2024/01/06 03:05:53;;;;;;;3.27;2.70;;;;;;;6.89;72.09;95062.88;5067248;28;20548;-68
2024/01/06 03:08:18;;;;;;;5.40;3.47;;;;;;;6.97;72.22;95063.34;5067931;28;20296;-69
2024/01/06 03:10:43;;;;;;;3.23;2.93;;;;;;;7.02;72.32;95070.94;5068093;28;20248;-69
2024/01/06 03:13:09;;;;;;;5.10;3.37;;;;;;;6.98;71.95;95067.63;5068554;28;20178;-69
2024/01/06 03:15:34;;;;;;;5.13;3.27;;;;;;;7.14;71.39;95072.06;5068421;28;20285;-69
2024/01/06 03:17:59;;;;;;;6.13;3.03;;;;;;;6.72;73.68;95081.97;5067787;28;20174;-69
2024/01/06 03:20:25;;;;;;;3.37;2.80;;;;;;;6.65;73.16;95090.19;5067934;28;20545;-69
2024/01/06 03:22:50;;;;;;;7.27;3.43;;;;;;;6.78;73.58;95086.06;5067814;28;20312;-67
2024/01/06 03:25:16;;;;;;;4.23;3.10;;;;;;;6.98;73.17;95090.25;5068180;28;20174;-69
2024/01/06 03:27:41;;;;;;;8.97;3.80;;;;;;;6.91;73.45;95084.50;5067784;28;20174;-69
2024/01/06 03:30:07;;;;;;;4.10;3.00;;;;;;;6.97;72.53;95085.97;5067578;28;20223;-69
2024/01/06 03:32:32;;;;;;;7.93;3.40;;;;;;;6.98;72.33;95083.28;5067806;28;20194;-69
2024/01/06 03:34:57;;;;;;;5.27;2.70;;;;;;;6.89;71.86;95082.91;5068163;28;20249;-69
2024/01/06 03:37:24;;;;;;;5.50;2.90;;;;;;;6.89;71.85;95073.31;5067849;28;20243;-69
2024/01/06 03:39:49;;;;;;;7.40;3.93;;;;;;;6.97;71.93;95079.00;5067895;28;20167;-69
2024/01/06 03:42:14;;;;;;;7.63;3.47;;;;;;;6.72;72.08;95079.38;5067799;28;20412;-68
2024/01/06 03:44:40;;;;;;;6.37;3.10;;;;;;;6.84;71.69;95083.13;5068184;28;20181;-69
2024/01/06 03:47:05;;;;;;;5.40;3.00;;;;;;;6.81;71.60;95090.28;5072201;28;20186;-69
2024/01/06 03:49:31;;;;;;;6.50;3.13;;;;;;;6.77;72.20;95093.03;5083484;28;20194;-68
2024/01/06 03:51:56;;;;;;;5.20;2.90;;;;;;;6.84;71.99;95090.94;5085434;28;20170;-69
2024/01/06 03:54:22;;;;;;;4.40;2.50;;;;;;;6.89;71.04;95096.78;5082208;28;20174;-69
2024/01/06 03:56:47;;;;;;;13.60;2.70;;;;;;;6.71;70.36;95087.28;5071214;28;20225;-68
2024/01/06 03:59:13;;;;;;;2.93;2.20;;;;;;;6.43;71.17;95083.44;5067948;28;20405;-68
2024/01/06 04:01:38;;;;;;;5.50;2.40;;;;;;;6.62;71.12;95087.75;5067562;28;20268;-69
2024/01/06 04:04:04;;;;;;;4.33;2.87;;;;;;;6.71;70.26;95082.06;5067121;28;20162;-69
2024/01/06 04:06:31;;;;;;;3.93;3.00;;;;;;;6.49;71.36;95083.09;5067259;28;20198;-69
2024/01/06 04:08:57;;;;;;;4.13;2.87;;;;;;;6.79;70.36;95088.56;5066982;28;20252;-69
2024/01/06 04:11:22;;;;;;;7.60;3.13;;;;;;;6.84;71.43;95087.50;5066977;28;20424;-70
2024/01/06 04:13:48;;;;;;;3.50;3.10;;;;;;;6.80;71.94;95086.81;5067252;28;20182;-69
2024/01/06 04:16:13;;;;;;;5.40;4.50;;;;;;;6.76;70.08;95087.91;5066850;28;20202;-70
2024/01/06 04:18:39;;;;;;;5.07;3.10;;;;;;;6.86;71.42;95078.69;5066900;28;20174;-69
2024/01/06 04:21:08;;;;;;;4.10;2.67;;;;;;;6.86;71.53;95086.50;5066950;28;20761;-70
2024/01/06 04:23:34;;;;;;;4.47;2.43;;;;;;;6.98;71.49;95079.81;5067419;28;20540;-71
2024/01/06 04:25:59;;;;;;;6.70;3.00;;;;;;;6.94;70.90;95081.72;5066976;28;20474;-69
2024/01/06 04:28:25;;;;;;;3.70;2.50;;;;;;;6.58;72.00;95092.25;5067116;28;20174;-68
2024/01/06 04:30:51;;;;;;;4.37;2.70;;;;;;;6.71;71.46;95095.13;5066831;28;20199;-68
2024/01/06 04:33:16;;;;;;;3.03;2.77;;;;;;;6.72;71.18;95100.22;5066959;28;20184;-69
2024/01/06 04:35:42;;;;;;;8.00;2.90;;;;;;;6.68;70.75;95096.09;5066923;28;20523;-69
2024/01/06 04:38:07;;;;;;;9.53;3.00;;;;;;;6.86;70.69;95098.72;5066345;28;20304;-70
2024/01/06 04:40:33;;;;;;;6.37;2.70;;;;;;;6.88;71.09;95094.25;5066846;28;20170;-70
2024/01/06 04:42:58;;;;;;;4.07;2.50;;;;;;;6.97;71.47;95104.25;5066755;28;20684;-70
2024/01/06 04:45:24;;;;;;;4.60;2.70;;;;;;;6.98;71.88;95104.13;5066542;28;20247;-69
2024/01/06 04:47:50;;;;;;;4.50;2.80;;;;;;;6.79;72.55;95108.59;5066612;28;20181;-70
2024/01/06 04:50:15;;;;;;;3.97;3.00;;;;;;;6.75;72.37;95115.72;5066209;28;20198;-69
2024/01/06 04:52:41;;;;;;;5.20;3.20;;;;;;;6.78;72.15;95115.59;5066295;28;20416;-69
2024/01/06 04:55:06;;;;;;;4.20;2.73;;;;;;;6.85;72.55;95117.88;5068057;28;20170;-69
2024/01/06 04:57:32;;;;;;;5.47;3.13;;;;;;;6.83;72.09;95125.78;5069973;28;20178;-70
2024/01/06 04:59:57;;;;;;;5.93;3.30;;;;;;;6.76;72.08;95122.63;5069956;28;20174;-69
2024/01/06 05:02:23;;;;;;;3.77;3.10;;;;;;;6.68;72.70;95123.91;5071561;28;20170;-69
2024/01/06 05:04:48;;;;;;;3.80;3.37;;;;;;;6.35;73.38;95127.22;5070983;28;20678;-71
2024/01/06 05:07:14;;;;;;;3.97;2.80;;;;;;;6.50;72.94;95129.13;5071850;28;20194;-69
2024/01/06 05:09:39;;;;;;;5.00;3.30;;;;;;;6.51;72.80;95129.97;5073173;28;20237;-69
2024/01/06 05:12:05;;;;;;;6.33;4.00;;;;;;;6.71;72.63;95124.63;5073140;28;20178;-69
2024/01/06 05:14:30;;;;;;;8.33;3.60;;;;;;;6.87;72.95;95134.28;5071364;28;20171;-69
2024/01/06 05:16:55;;;;;;;5.30;3.67;;;;;;;6.86;72.49;95135.22;5067295;28;20842;-69
2024/01/06 05:19:21;;;;;;;5.20;4.03;;;;;;;6.82;73.32;95136.28;5066464;28;20169;-70
2024/01/06 05:21:47;;;;;;;9.43;3.53;;;;;;;6.83;72.79;95138.81;5066301;28;20181;-69
2024/01/06 05:24:13;;;;;;;4.07;3.40;;;;;;;6.76;72.79;95140.03;5066633;28;20170;-69
2024/01/06 05:26:38;;;;;;;9.50;3.80;;;;;;;6.71;73.11;95142.88;5066128;28;20428;-70
2024/01/06 05:29:03;;;;;;;4.07;3.53;;;;;;;6.72;73.41;95151.53;5065485;28;20702;-69
2024/01/06 05:31:29;;;;;;;5.40;3.47;;;;;;;6.76;73.54;95150.47;5066267;28;20166;-70
2024/01/06 05:33:54;;;;;;;7.10;4.07;;;;;;;6.62;73.76;95152.91;5066547;28;20178;-69
2024/01/06 05:36:22;;;;;;;6.60;4.37;;;;;;;6.66;73.63;95154.44;5059193;28;20202;-68
2024/01/06 05:38:47;;;;;;;5.43;3.90;;;;;;;6.75;73.95;95148.75;5063772;28;20198;-68
2024/01/06 05:41:13;;;;;;;3.97;3.40;;;;;;;6.56;74.00;95148.81;5066033;28;20835;-69
2024/01/06 05:43:38;;;;;;;6.63;3.60;;;;;;;6.65;73.74;95156.19;5066487;28;20169;-69
2024/01/06 05:46:04;;;;;;;7.20;3.87;;;;;;;6.58;73.89;95160.84;5056000;28;20554;-69
2024/01/06 05:48:29;;;;;;;7.17;4.00;;;;;;;6.39;74.65;95154.00;5045956;28;20186;-69
2024/01/06 05:50:55;;;;;;;5.83;3.40;;;;;;;6.38;75.05;95155.78;5046351;28;20210;-69
2024/01/06 05:53:20;;;;;;;4.17;3.50;;;;;;;6.49;75.46;95157.84;5047019;28;20179;-69
2024/01/06 05:55:46;;;;;;;5.83;3.47;;;;;;;6.47;75.28;95157.06;5046533;28;20198;-69
2024/01/06 05:58:11;;;;;;;9.97;3.90;;;;;;;6.55;74.64;95162.78;5046463;28;20175;-69
2024/01/06 06:00:37;;;;;;;12.30;5.30;;;;;;;6.62;72.63;95160.72;5047028;28;20175;-69
2024/01/06 06:03:02;;;;;;;4.90;4.10;;;;;;;6.61;73.59;95164.25;5046973;28;20183;-68
2024/01/06 06:05:28;;;;;;;5.07;4.00;;;;;;;6.69;73.81;95172.56;5047168;28;20998;-68
2024/01/06 06:07:54;;;;;;;7.90;4.63;;;;;;;6.60;74.14;95171.22;5046413;28;20171;-68
2024/01/06 06:10:20;;;;;;;8.13;3.73;;;;;;;6.58;73.86;95178.25;5047463;28;20198;-68
2024/01/06 06:12:45;;;;;;;7.97;4.80;;;;;;;6.48;74.35;95182.22;5047264;28;20421;-68
2024/01/06 06:15:11;;;;;;;5.80;4.20;;;;;;;6.53;74.47;95175.03;5076238;28;20414;-69
2024/01/06 06:17:36;;;;;;;5.40;4.90;;;;;;;6.53;74.86;95181.09;5092777;28;20202;-68
2024/01/06 06:20:02;;;;;;;5.57;3.93;;;;;;;6.35;75.47;95177.59;5089371;28;20170;-68
2024/01/06 06:22:31;;;;;;;7.53;4.10;;;;;;;6.56;74.49;95182.69;5086180;28;20184;-68
2024/01/06 06:24:57;;;;;;;5.63;4.93;;;;;;;6.57;74.76;95193.06;5086323;28;20510;-69
2024/01/06 06:27:23;;;;;;;5.63;4.30;;;;;;;6.66;74.16;95193.53;5086222;28;20427;-73
2024/01/06 06:29:48;;;;;;;5.90;4.53;;;;;;;6.53;74.29;95204.53;5085345;28;21004;-69
2024/01/06 06:32:14;;;;;;;5.60;4.17;;;;;;;6.52;74.53;95215.03;5085302;28;20407;-70
2024/01/06 06:34:39;;;;;;;4.57;4.27;;;;;;;6.44;74.92;95215.41;5085775;28;20509;-69
2024/01/06 06:37:05;;;;;;;5.17;4.77;;;;;;;6.41;75.38;95212.09;5084900;28;20672;-68
2024/01/06 06:39:34;;;;;;;9.17;5.00;;;;;;;6.40;75.21;95210.41;5085064;28;20208;-69
2024/01/06 06:41:59;;;;;;;5.40;4.37;;;;;;;6.50;74.78;95222.94;5088448;28;20515;-69
2024/01/06 06:44:25;;;;;;;6.50;5.50;;;;;;;6.44;74.92;95211.94;5088445;28;20411;-68
2024/01/06 06:46:50;;;;;;;6.23;4.67;;;;;;;6.41;75.10;95207.72;5070114;28;20259;-68
2024/01/06 06:49:15;;;;;;;5.03;4.10;;;;;;;6.03;76.65;95218.16;5067332;28;20688;-68
2024/01/06 06:51:46;;;;;;;8.50;5.47;;;;;;;6.19;75.69;95217.44;5067508;28;20192;-68
2024/01/06 06:54:12;;;;;;;4.97;4.20;;;;;;;6.38;75.00;95217.44;5068049;28;20667;-69
2024/01/06 06:56:38;;;;;;;9.40;4.40;;;;;;;6.33;74.57;95218.53;5066982;28;20444;-68
2024/01/06 06:59:03;;;;;;;5.80;4.37;;;;;;;6.42;74.30;95216.38;5067123;28;20410;-68
2024/01/06 07:01:28;;;;;;;5.07;4.57;;;;;;;6.40;74.28;95215.59;5067087;28;20174;-69
2024/01/06 07:03:54;;;;;;;6.70;5.37;;;;;;;6.35;74.59;95228.84;5065381;28;20173;-71
2024/01/06 07:06:19;;;;;;;8.90;6.27;;;;;;;6.35;74.79;95224.50;5066598;28;20198;-68
2024/01/06 07:08:45;;;;;;;7.07;5.20;;;;;;;6.30;74.90;95229.06;5067509;28;20178;-68
2024/01/06 07:11:11;;;;;;;6.87;5.47;;;;;;;6.40;74.84;95232.09;5067626;28;20178;-68
2024/01/06 07:13:37;;;;;;;7.60;5.60;;;;;;;6.47;75.03;95227.44;5067172;28;20257;-68
2024/01/06 07:16:02;;;;;;;6.83;4.87;;;;;;;6.46;74.19;95230.97;5066464;28;20510;-67
2024/01/06 07:18:28;;;;;;;11.97;5.03;;;;;;;6.43;74.55;95225.91;5066783;28;20182;-69
2024/01/06 07:20:53;;;;;;;8.57;5.00;;;;;;;6.39;74.63;95230.41;5067472;28;20239;-69
2024/01/06 07:23:19;;;;;;;10.00;6.03;;;;;;;6.49;74.66;95236.88;5066988;28;20253;-69
2024/01/06 07:25:44;;;;;;;7.10;5.23;;;;;;;6.50;74.57;95243.78;5066799;28;20193;-68
2024/01/06 07:28:09;;;;;;;8.80;5.50;;;;;;;6.54;73.99;95249.69;5066222;28;20170;-68
2024/01/06 07:30:35;;;;;;;7.03;5.10;;;;;;;6.60;73.92;95249.41;5060279;28;20291;-70
2024/01/06 07:33:00;;;;;;;10.40;6.13;;;;;;;6.55;74.30;95256.59;5075587;28;20205;-69
2024/01/06 07:35:26;;;;;;;11.13;5.90;;;;;;;6.56;73.86;95263.50;5064255;28;20221;-69
2024/01/06 07:37:51;;;;;;;9.30;5.30;;;;;;;6.44;74.46;95258.84;5067562;28;20194;-69
2024/01/06 07:40:17;;;;;;;7.00;4.47;;;;;;;6.38;74.84;95260.00;5067665;28;20174;-69
2024/01/06 07:42:44;;;;;;;5.63;5.13;;;;;;;6.48;74.05;95260.41;5073717;28;20205;-69
2024/01/06 07:45:10;;;;;;;5.90;5.00;;;;;;;6.44;73.94;95262.31;5068029;28;20443;-69
2024/01/06 07:47:35;;;;;;;5.03;4.53;;;;;;;6.46;73.63;95257.88;5066693;28;20482;-69
2024/01/06 07:50:00;;;;;;;6.03;5.43;;;;;;;6.50;73.62;95262.03;5081321;28;20202;-69
2024/01/06 07:52:26;;;;;;;7.00;6.13;;;;;;;6.51;73.43;95263.72;5076130;28;20204;-69
2024/01/06 07:54:51;;;;;;;6.90;5.47;;;;;;;6.49;74.15;95270.75;5064752;28;20228;-68
2024/01/06 07:57:16;;;;;;;6.43;4.60;;;;;;;6.48;73.86;95274.28;5088507;28;20214;-68
2024/01/06 07:59:42;;;;;;;6.40;5.67;;;;;;;6.50;73.71;95282.03;5072667;28;20175;-68
2024/01/06 08:02:08;;;;;;;6.77;6.07;;;;;;;6.40;74.31;95284.19;5061839;28;20178;-68
2024/01/06 08:04:34;;;;;;;7.80;5.27;;;;;;;6.47;74.27;95280.44;5063860;28;20173;-69
2024/01/06 08:06:59;;;;;;;9.10;5.53;;;;;;;6.50;74.32;95282.03;5088021;28;20516;-68
2024/01/06 08:09:25;;;;;;;11.73;6.87;;;;;;;6.51;74.15;95281.13;5082066;28;20706;-69
2024/01/06 08:11:50;;;;;;;6.50;5.77;;;;;;;6.53;73.63;95279.28;5070690;28;20178;-69
2024/01/06 08:14:17;;;;;;;5.43;4.90;;;;;;;6.56;73.79;95285.19;5073092;28;20585;-68
2024/01/06 08:16:43;;;;;;;7.07;5.50;;;;;;;6.56;73.55;95287.78;5069605;28;20214;-70
2024/01/06 08:19:08;;;;;;;5.53;4.83;;;;;;;6.54;73.23;95281.84;5070912;28;20547;-68
2024/01/06 08:21:34;;;;;;;8.80;4.33;;;;;;;6.66;72.52;95279.56;5088089;28;20416;-68
2024/01/06 08:24:00;;;;;;;12.23;4.93;;;;;;;6.58;72.60;95282.53;5069897;28;20198;-68
2024/01/06 08:26:26;;;;;;;6.07;4.40;;;;;;;6.50;72.93;95287.25;5064112;28;20236;-68
2024/01/06 08:28:51;;;;;;;6.77;5.10;;;;;;;6.53;73.19;95285.34;5073284;28;20694;-67
2024/01/06 08:31:16;;;;;;;4.77;4.17;;;;;;;6.52;72.31;95293.22;5065221;28;20440;-68
2024/01/06 08:33:42;;;;;;;8.20;5.00;;;;;;;6.55;72.39;95293.09;5061148;28;20251;-67
2024/01/06 08:36:08;;;;;;;5.23;4.70;;;;;;;6.53;72.53;95300.97;5066824;28;20193;-67
2024/01/06 08:38:33;;;;;;;17.97;6.53;;;;;;;6.66;72.64;95305.63;5070850;28;20186;-68
2024/01/06 08:40:58;;;;;;;11.20;5.30;;;;;;;6.67;72.24;95304.72;5067549;28;20204;-68
2024/01/06 08:43:24;;;;;;;12.43;5.00;;;;;;;6.69;72.22;95305.50;5078393;28;20185;-69
2024/01/06 08:45:50;;;;;;;15.63;5.10;;;;;;;6.43;72.74;95299.72;5074735;28;20198;-66
2024/01/06 08:48:18;;;;;;;6.20;4.60;;;;;;;6.52;72.33;95304.50;5061098;28;20179;-67
2024/01/06 08:50:45;;;;;;;6.13;4.43;;;;;;;6.54;72.46;95305.28;5074809;28;20459;-68
2024/01/06 08:53:10;;;;;;;8.03;5.20;;;;;;;6.45;73.16;95310.91;5087196;28;20441;-67
2024/01/06 08:55:36;;;;;;;5.43;3.97;;;;;;;6.47;72.67;95311.69;5086781;28;20454;-67
2024/01/06 08:58:01;;;;;;;5.80;4.23;;;;;;;6.45;72.29;95310.91;5085620;28;20703;-68
2024/01/06 09:00:26;;;;;;;8.13;4.67;;;;;;;6.53;72.79;95313.16;5087585;28;20205;-68
2024/01/06 09:02:52;;;;;;;7.30;4.90;;;;;;;6.64;72.46;95308.31;5083529;28;20174;-67
2024/01/06 09:05:17;;;;;;;6.70;4.20;;;;;;;6.49;72.52;95309.84;5070229;28;20205;-67
2024/01/06 09:07:43;;;;;;;7.30;5.00;;;;;;;6.59;71.87;95307.69;5078062;28;20182;-68
2024/01/06 09:10:09;;;;;;;5.60;4.23;;;;;;;6.54;72.45;95309.63;5079620;28;20247;-66
2024/01/06 09:12:35;;;;;;;17.53;6.40;;;;;;;6.47;72.63;95306.50;5075341;28;20170;-68
2024/01/06 09:15:00;;;;;;;24.57;6.23;;;;;;;6.37;73.05;95313.00;5066814;28;20411;-65
2024/01/06 09:17:25;;;;;;;10.50;4.90;;;;;;;6.51;73.10;95310.63;5066035;28;20186;-68
2024/01/06 09:19:53;;;;;;;8.50;4.57;;;;;;;6.53;72.70;95307.97;5066222;28;20221;-66
2024/01/06 09:22:19;;;;;;;8.30;5.20;;;;;;;6.30;73.41;95324.63;5066814;28;20260;-67
2024/01/06 09:24:44;;;;;;;24.53;8.73;;;;;;;6.51;73.18;95323.66;5070430;28;20942;-65
2024/01/06 09:27:09;;;;;;;12.20;5.20;;;;;;;6.58;72.55;95316.41;5066129;28;20190;-66
2024/01/06 09:29:35;;;;;;;13.50;4.90;;;;;;;6.72;71.94;95327.03;5066028;28;20220;-66
2024/01/06 09:32:00;;;;;;;8.67;5.30;;;;;;;6.85;71.40;95326.47;5067195;28;20173;-68
2024/01/06 09:34:26;;;;;;;15.43;6.00;;;;;;;6.73;71.72;95326.16;5070821;28;20230;-68
2024/01/06 09:36:51;;;;;;;7.67;5.10;;;;;;;6.73;71.67;95323.53;5066237;28;20772;-68
2024/01/06 09:39:17;;;;;;;6.47;4.70;;;;;;;6.76;70.82;95328.59;5066047;28;20257;-67
2024/01/06 09:41:43;;;;;;;8.30;4.87;;;;;;;6.76;71.80;95338.19;5068184;28;20200;-66
2024/01/06 09:44:08;;;;;;;6.67;4.80;;;;;;;6.64;72.09;95333.53;5041722;28;20770;-66
2024/01/06 09:46:35;;;;;;;5.77;4.80;;;;;;;6.68;71.68;95330.72;5072719;28;20251;-68
2024/01/06 09:49:01;;;;;;;6.90;4.80;;;;;;;6.66;72.27;95336.91;5066834;28;20266;-66
2024/01/06 09:51:27;;;;;;;7.03;4.53;;;;;;;6.51;72.03;95334.09;5047629;28;20471;-67
2024/01/06 09:54:00;;;;;;;6.63;5.17;;;;;;;6.53;72.02;95329.66;5075297;28;20419;-66
2024/01/06 09:56:28;;;;;;;6.90;4.73;;;;;;;6.44;72.54;95326.63;5066837;28;20186;-67
2024/01/06 09:58:54;;;;;;;5.77;4.60;;;;;;;6.56;72.12;95333.88;5065769;28;20787;-67
2024/01/06 10:01:20;;;;;;;5.77;4.00;;;;;;;6.58;71.63;95335.50;5066554;28;21221;-66
2024/01/06 10:03:46;;;;;;;8.77;4.77;;;;;;;6.64;71.23;95334.38;5078200;28;21139;-67
2024/01/06 10:06:13;;;;;;;7.23;4.80;;;;;;;6.71;70.71;95332.34;5087201;28;20427;-67
2024/01/06 10:08:42;;;;;;;5.07;4.60;;;;;;;6.65;70.96;95337.84;5094642;28;20233;-68
2024/01/06 10:11:10;;;;;;;6.90;5.40;;;;;;;6.68;71.57;95337.69;5093025;28;20443;-66
2024/01/06 10:13:39;;;;;;;12.93;4.70;;;;;;;6.72;71.32;95340.09;5098060;28;20419;-68
2024/01/06 10:16:26;;;;;;;15.17;4.97;;;;;;;6.78;71.43;95339.81;5107800;28;20442;-65
2024/01/06 10:18:53;;;;;;;22.57;5.50;;;;;;;6.66;71.51;95331.69;5109077;28;20503;-68
2024/01/06 10:21:21;;;;;;;4.73;3.93;;;;;;;6.68;71.38;95335.91;5101293;28;20404;-66
2024/01/06 10:23:48;;;;;;;7.00;4.90;;;;;;;6.60;71.65;95334.59;5099926;28;20443;-67
2024/01/06 10:26:14;;;;;;;11.73;5.30;;;;;;;6.64;72.05;95333.53;5102069;28;20436;-67
2024/01/06 10:28:41;;;;;;;13.83;6.07;;;;;;;6.67;72.21;95333.41;5103211;28;20404;-66
2024/01/06 10:31:12;;;;;;;7.47;5.47;;;;;;;6.49;72.22;95329.84;5106271;28;20221;-66
2024/01/06 10:33:39;;;;;;;5.50;5.00;;;;;;;6.56;72.07;95332.09;5106898;28;20416;-67
2024/01/06 10:36:08;;;;;;;6.20;5.23;;;;;;;6.53;72.16;95329.66;5109437;28;20489;-69
2024/01/06 10:38:40;;;;;;;5.80;5.17;;;;;;;6.53;71.99;95321.84;5105527;28;20419;-67
2024/01/06 10:41:11;;;;;;;6.90;5.73;;;;;;;6.51;73.05;95334.09;5108712;28;20395;-67
2024/01/06 10:43:43;;;;;;;10.30;5.67;;;;;;;6.61;72.43;95329.28;5110593;28;20400;-70
2024/01/06 10:46:10;;;;;;;9.23;4.90;;;;;;;6.55;72.28;95333.03;5103530;28;20442;-66
2024/01/06 10:48:42;;;;;;;7.50;5.03;;;;;;;6.61;71.92;95329.28;5086286;28;20447;-71
2024/01/06 10:51:15;;;;;;;7.33;4.80;;;;;;;6.62;72.40;95322.34;5088229;28;20439;-66
2024/01/06 10:53:43;;;;;;;7.20;4.90;;;;;;;6.63;72.26;95327.47;5086614;28;20412;-66
2024/01/06 10:56:10;;;;;;;11.90;5.20;;;;;;;6.70;72.30;95325.44;5089876;28;20424;-68
2024/01/06 10:58:42;;;;;;;9.40;5.70;;;;;;;6.71;71.93;95329.75;5089501;28;20401;-64
2024/01/06 11:01:09;;;;;;;6.13;5.43;;;;;;;6.57;72.30;95328.59;5086467;28;20400;-65
2024/01/06 11:03:37;;;;;;;8.07;5.90;;;;;;;6.60;72.66;95326.78;5085525;28;20418;-65
2024/01/06 11:06:04;;;;;;;11.13;6.33;;;;;;;6.62;73.25;95330.16;5089439;28;20487;-66
2024/01/06 11:08:33;;;;;;;5.30;4.80;;;;;;;6.58;72.74;95330.28;5088690;28;20851;-66
2024/01/06 11:10:59;;;;;;;7.30;5.50;;;;;;;6.71;72.34;95327.97;5088658;28;20574;-66
2024/01/06 11:13:26;;;;;;;12.23;6.00;;;;;;;6.69;72.18;95321.16;5088847;28;20973;-69
2024/01/06 11:15:53;;;;;;;7.10;6.40;;;;;;;6.74;72.60;95330.44;5088986;28;20186;-68
2024/01/06 11:18:39;;;;;;;14.43;6.70;;;;;;;6.71;72.58;95330.59;5088695;28;20412;-66
2024/01/06 11:21:13;;;;;;;18.30;6.87;;;;;;;6.67;73.03;95328.19;5088152;28;20955;-68
2024/01/06 11:23:39;;;;;;;8.20;6.07;;;;;;;6.76;72.76;95322.56;5088725;28;20414;-69
2024/01/06 11:26:07;;;;;;;8.30;5.97;;;;;;;6.63;72.90;95324.03;5087174;28;20439;-67
2024/01/06 11:28:47;;;;;;;9.87;5.90;;;;;;;6.72;72.55;95326.22;5088221;28;20170;-68
2024/01/06 11:31:13;;;;;;;6.13;5.50;;;;;;;6.67;72.50;95318.59;5089601;28;20462;-67
2024/01/06 11:33:47;;;;;;;7.07;5.67;;;;;;;6.59;72.73;95312.91;5088503;28;20491;-68